Time;durP1;ratioP1;P1;durP2;ratioP2;P2;SDS_P1;SDS_P2;PMS_P1;PMS_P2;Temp;Humidity;BMP_temperature;BMP_pressure;BME280_temperature;BME280_humidity;BME280_pressure;Samples;Min_cycle;Max_cycle;Signal;HPM_P1;HPM_P2
2023/08/02 00:00:11;;;;;;;2.27;1.30;;;18.10;79.80;;;;;;5056238;28;21002;-68
2023/08/02 00:02:43;;;;;;;4.10;2.07;;;18.10;79.60;;;;;;5056016;28;20477;-68
2023/08/02 00:05:15;;;;;;;3.00;1.80;;;18.10;79.10;;;;;;5055448;28;20450;-68
2023/08/02 00:07:44;;;;;;;3.93;1.83;;;18.10;77.50;;;;;;5055834;28;20583;-68
2023/08/02 00:10:13;;;;;;;2.30;1.30;;;18.10;77.90;;;;;;5055835;28;20890;-68
2023/08/02 00:12:45;;;;;;;4.33;1.80;;;18.10;78.60;;;;;;5056143;28;20518;-68
2023/08/02 00:15:13;;;;;;;2.67;1.47;;;18.10;78.90;;;;;;5055791;28;20546;-68
2023/08/02 00:17:44;;;;;;;3.20;1.87;;;18.10;79.60;;;;;;5055591;28;20538;-68
2023/08/02 00:20:12;;;;;;;2.73;1.40;;;18.10;79.70;;;;;;5056045;28;20749;-68
2023/08/02 00:22:41;;;;;;;2.87;1.23;;;18.10;76.90;;;;;;5054965;28;20524;-70
2023/08/02 00:25:10;;;;;;;4.50;2.17;;;18.10;76.20;;;;;;5055372;28;20435;-68
2023/08/02 00:27:42;;;;;;;3.37;1.83;;;18.10;77.30;;;;;;5055402;28;21010;-68
2023/08/02 00:30:10;;;;;;;5.00;1.63;;;18.10;77.00;;;;;;5055740;28;20829;-68
2023/08/02 00:32:44;;;;;;;5.30;1.87;;;18.00;76.70;;;;;;5055663;28;20476;-68
2023/08/02 00:35:12;;;;;;;3.00;1.90;;;18.10;78.20;;;;;;5055682;28;20841;-68
2023/08/02 00:37:39;;;;;;;4.80;2.00;;;18.10;78.90;;;;;;5055006;28;20461;-68
2023/08/02 00:40:07;;;;;;;3.47;1.87;;;18.10;77.50;;;;;;5055120;28;20435;-68
2023/08/02 00:42:36;;;;;;;5.80;2.07;;;18.10;76.50;;;;;;5055519;28;20465;-68
2023/08/02 00:45:03;;;;;;;5.17;2.43;;;18.10;76.10;;;;;;5055625;28;20877;-68
2023/08/02 00:47:37;;;;;;;3.83;2.47;;;18.10;76.40;;;;;;5055604;28;20477;-68
2023/08/02 00:50:05;;;;;;;4.00;1.90;;;18.10;75.60;;;;;;5055212;28;20892;-68
2023/08/02 00:52:38;;;;;;;2.87;1.53;;;18.00;76.70;;;;;;5055264;28;20465;-72
2023/08/02 00:55:06;;;;;;;3.20;1.80;;;18.00;78.40;;;;;;5035516;28;20518;-67
2023/08/02 00:57:39;;;;;;;2.50;1.33;;;18.00;78.80;;;;;;5035141;28;20471;-68
2023/08/02 01:00:07;;;;;;;3.10;1.60;;;17.90;79.50;;;;;;5035566;28;20812;-68
2023/08/02 01:02:35;;;;;;;4.13;1.77;;;17.90;79.60;;;;;;5035413;28;20449;-69
2023/08/02 01:05:10;;;;;;;2.70;1.70;;;17.90;80.10;;;;;;5054792;28;20549;-68
2023/08/02 01:07:44;;;;;;;3.03;1.70;;;17.90;79.40;;;;;;5055298;28;20472;-67
2023/08/02 01:10:17;;;;;;;5.63;2.00;;;17.80;76.60;;;;;;5054724;28;21128;-68
2023/08/02 01:12:47;;;;;;;3.67;1.60;;;17.70;77.80;;;;;;5054865;28;20457;-68
2023/08/02 01:15:16;;;;;;;3.17;1.83;;;17.80;79.10;;;;;;5054618;28;20525;-69
2023/08/02 01:17:45;;;;;;;4.27;1.70;;;17.70;79.80;;;;;;5054943;28;20533;-68
2023/08/02 01:20:13;;;;;;;2.83;1.43;;;17.70;79.50;;;;;;5054593;28;20441;-68
2023/08/02 01:22:41;;;;;;;5.43;1.70;;;17.70;79.10;;;;;;5054658;28;20480;-68
2023/08/02 01:25:09;;;;;;;2.83;1.50;;;17.70;79.10;;;;;;5048324;28;20884;-68
2023/08/02 01:27:41;;;;;;;3.10;1.50;;;17.60;78.70;;;;;;5054813;28;20854;-68
2023/08/02 01:30:13;;;;;;;4.57;1.60;;;17.60;78.60;;;;;;5054287;28;20517;-68
2023/08/02 01:32:44;;;;;;;4.43;1.80;;;17.50;78.70;;;;;;5054899;28;20824;-68
2023/08/02 01:35:13;;;;;;;5.40;1.90;;;17.50;78.90;;;;;;5034620;28;20423;-68
2023/08/02 01:37:45;;;;;;;3.00;1.80;;;17.50;79.50;;;;;;5034685;28;20860;-69
2023/08/02 01:40:13;;;;;;;4.00;1.97;;;17.40;79.80;;;;;;5034748;28;20831;-68
2023/08/02 01:42:41;;;;;;;2.73;1.77;;;17.40;79.90;;;;;;5035988;28;20528;-68
2023/08/02 01:45:09;;;;;;;3.70;1.70;;;17.40;80.30;;;;;;5054467;28;20476;-68
2023/08/02 01:47:45;;;;;;;5.00;2.30;;;17.40;80.70;;;;;;5054571;28;20915;-68
2023/08/02 01:50:13;;;;;;;3.87;2.10;;;17.30;80.30;;;;;;5053862;28;20444;-68
2023/08/02 01:52:40;;;;;;;4.93;1.87;;;17.30;80.50;;;;;;5053852;28;20437;-67
2023/08/02 01:55:12;;;;;;;5.60;1.90;;;17.30;80.30;;;;;;5054094;28;20439;-68
2023/08/02 01:57:39;;;;;;;6.20;2.13;;;17.20;80.20;;;;;;5054084;28;20509;-67
2023/08/02 02:00:08;;;;;;;4.80;2.00;;;17.20;80.30;;;;;;5053901;28;20991;-68
2023/08/02 02:02:37;;;;;;;6.10;2.10;;;17.10;80.00;;;;;;5053676;28;20437;-68
2023/08/02 02:05:18;;;;;;;6.30;2.27;;;17.10;79.50;;;;;;5053926;28;20474;-68
2023/08/02 02:07:45;;;;;;;4.37;1.90;;;17.00;80.20;;;;;;5053735;28;20469;-67
2023/08/02 02:10:14;;;;;;;3.37;1.80;;;17.00;80.40;;;;;;5053358;28;20983;-68
2023/08/02 02:12:44;;;;;;;3.70;1.90;;;17.00;80.70;;;;;;5053661;28;20487;-68
2023/08/02 02:15:11;;;;;;;7.70;2.87;;;17.00;80.80;;;;;;5053648;28;20424;-70
2023/08/02 02:17:44;;;;;;;5.00;2.17;;;16.90;81.10;;;;;;5054114;28;20839;-67
2023/08/02 02:20:14;;;;;;;5.90;2.20;;;16.90;81.30;;;;;;5053688;28;20429;-67
2023/08/02 02:22:42;;;;;;;6.27;2.30;;;16.80;81.10;;;;;;5052974;28;20444;-68
2023/08/02 02:25:10;;;;;;;6.53;1.70;;;16.80;80.90;;;;;;5053615;28;20560;-69
2023/08/02 02:27:39;;;;;;;3.60;2.17;;;16.70;80.30;;;;;;5053277;28;20771;-67
2023/08/02 02:30:07;;;;;;;5.33;2.53;;;16.50;80.40;;;;;;5052009;28;20531;-68
2023/08/02 02:32:35;;;;;;;5.50;3.27;;;16.50;80.40;;;;;;5053115;28;20522;-68
2023/08/02 02:35:05;;;;;;;3.20;2.03;;;16.40;80.90;;;;;;5053531;28;20523;-68
2023/08/02 02:37:35;;;;;;;3.90;2.10;;;16.30;81.40;;;;;;5053279;28;20521;-68
2023/08/02 02:40:04;;;;;;;4.97;2.40;;;16.20;82.00;;;;;;5053298;28;20515;-68
2023/08/02 02:42:33;;;;;;;4.40;2.40;;;16.10;82.30;;;;;;5053081;28;20425;-68
2023/08/02 02:45:04;;;;;;;4.83;2.17;;;16.00;83.00;;;;;;5053363;28;20889;-67
2023/08/02 02:47:36;;;;;;;3.53;2.33;;;15.90;83.70;;;;;;5053401;28;20432;-68
2023/08/02 02:50:04;;;;;;;5.13;2.53;;;15.80;84.20;;;;;;5053122;28;20519;-68
2023/08/02 02:52:32;;;;;;;4.43;2.03;;;15.80;84.70;;;;;;5052971;28;20437;-67
2023/08/02 02:54:59;;;;;;;6.53;2.20;;;15.80;84.50;;;;;;5053451;28;20525;-67
2023/08/02 02:57:27;;;;;;;3.80;1.97;;;15.80;84.40;;;;;;5052845;28;20436;-67
2023/08/02 02:59:54;;;;;;;5.33;2.00;;;15.80;84.60;;;;;;5053032;28;20484;-67
2023/08/02 03:02:26;;;;;;;4.00;2.53;;;15.70;84.80;;;;;;5053064;28;20471;-67
2023/08/02 03:04:53;;;;;;;5.30;2.20;;;15.70;85.00;;;;;;5053123;28;20522;-74
2023/08/02 03:07:20;;;;;;;6.00;2.20;;;15.80;85.40;;;;;;5052805;28;20915;-68
2023/08/02 03:09:48;;;;;;;5.53;2.47;;;15.80;85.50;;;;;;5052549;28;20852;-67
2023/08/02 03:12:17;;;;;;;3.80;2.00;;;15.60;84.80;;;;;;5053105;28;20490;-68
2023/08/02 03:14:47;;;;;;;3.90;2.10;;;15.60;84.70;;;;;;5052731;28;20846;-68
2023/08/02 03:17:16;;;;;;;4.80;2.00;;;15.60;84.70;;;;;;5053083;28;20842;-68
2023/08/02 03:19:43;;;;;;;4.37;2.00;;;15.60;84.60;;;;;;5052675;28;20494;-68
2023/08/02 03:22:11;;;;;;;3.80;1.50;;;15.70;84.50;;;;;;5052685;28;20432;-67
2023/08/02 03:24:43;;;;;;;6.37;2.20;;;15.70;85.00;;;;;;5053134;28;20475;-68
2023/08/02 03:27:11;;;;;;;5.23;2.30;;;15.80;84.70;;;;;;5052939;28;20427;-68
2023/08/02 03:29:38;;;;;;;2.87;2.10;;;15.80;84.70;;;;;;5052621;28;20445;-67
2023/08/02 03:32:08;;;;;;;3.83;2.07;;;15.80;85.10;;;;;;5052723;28;20806;-68
2023/08/02 03:34:37;;;;;;;3.93;1.90;;;15.80;85.50;;;;;;5052402;28;20865;-68
2023/08/02 03:37:04;;;;;;;4.13;2.67;;;15.90;85.30;;;;;;5052845;28;20429;-67
2023/08/02 03:39:32;;;;;;;5.70;1.83;;;15.90;85.10;;;;;;5052923;28;20789;-67
2023/08/02 03:42:03;;;;;;;3.30;1.80;;;15.90;85.70;;;;;;5052239;28;20915;-67
2023/08/02 03:44:30;;;;;;;3.70;2.00;;;15.90;86.20;;;;;;5052945;28;20469;-68
2023/08/02 03:47:03;;;;;;;4.40;1.90;;;16.00;86.00;;;;;;5052596;28;20444;-68
2023/08/02 03:49:31;;;;;;;6.43;3.03;;;16.00;86.20;;;;;;5052884;28;20447;-67
2023/08/02 03:51:58;;;;;;;3.30;2.00;;;15.90;86.60;;;;;;5051711;28;20439;-68
2023/08/02 03:54:30;;;;;;;4.63;2.50;;;15.90;86.60;;;;;;5051885;28;20445;-68
2023/08/02 03:57:01;;;;;;;5.13;3.57;;;15.90;87.10;;;;;;5052833;28;20835;-68
2023/08/02 03:59:28;;;;;;;3.73;2.20;;;15.90;87.10;;;;;;5052875;28;20429;-68
2023/08/02 04:01:56;;;;;;;4.30;2.30;;;16.00;87.20;;;;;;5051717;28;20482;-68
2023/08/02 04:04:27;;;;;;;3.10;1.73;;;16.00;86.90;;;;;;5052671;28;20519;-68
2023/08/02 04:06:56;;;;;;;5.57;1.83;;;16.00;87.00;;;;;;5052679;28;20837;-68
2023/08/02 04:09:23;;;;;;;3.20;1.70;;;16.00;87.10;;;;;;5052174;28;20527;-67
2023/08/02 04:11:50;;;;;;;4.83;2.13;;;16.00;87.00;;;;;;5052231;28;20437;-68
2023/08/02 04:14:19;;;;;;;5.03;2.40;;;16.10;87.50;;;;;;5053563;28;20447;-68
2023/08/02 04:16:46;;;;;;;2.80;1.83;;;16.10;87.60;;;;;;5056197;28;20854;-67
2023/08/02 04:19:21;;;;;;;5.03;1.60;;;16.20;87.90;;;;;;5056420;28;20436;-68
2023/08/02 04:21:49;;;;;;;3.70;1.70;;;16.20;87.90;;;;;;5055475;28;20432;-68
2023/08/02 04:24:17;;;;;;;5.53;2.37;;;16.20;87.50;;;;;;5055760;28;20590;-67
2023/08/02 04:26:49;;;;;;;3.10;1.77;;;16.20;87.30;;;;;;5056290;28;20436;-68
2023/08/02 04:29:21;;;;;;;9.37;1.57;;;16.30;87.50;;;;;;5056346;28;20436;-68
2023/08/02 04:31:52;;;;;;;3.37;2.37;;;16.20;88.10;;;;;;5055616;28;20461;-68
2023/08/02 04:34:19;;;;;;;4.70;2.60;;;16.30;88.60;;;;;;5055640;28;20798;-68
2023/08/02 04:36:46;;;;;;;4.30;2.33;;;16.30;87.90;;;;;;5055731;28;20966;-67
2023/08/02 04:39:18;;;;;;;6.03;2.10;;;16.30;88.10;;;;;;5056045;28;20459;-68
2023/08/02 04:41:46;;;;;;;2.80;1.83;;;16.30;89.20;;;;;;5056015;28;20443;-68
2023/08/02 04:44:15;;;;;;;5.20;1.60;;;16.30;89.20;;;;;;5055621;28;20908;-67
2023/08/02 04:46:42;;;;;;;3.67;1.57;;;16.40;89.30;;;;;;5051669;28;20444;-69
2023/08/02 04:49:09;;;;;;;2.40;1.60;;;16.40;87.80;;;;;;5054750;28;20503;-68
2023/08/02 04:51:37;;;;;;;2.87;1.77;;;16.50;87.90;;;;;;5054963;28;20978;-68
2023/08/02 04:54:10;;;;;;;3.07;1.60;;;16.50;87.60;;;;;;5055042;28;20437;-67
2023/08/02 04:56:39;;;;;;;3.43;2.20;;;16.50;86.60;;;;;;5054843;28;20512;-68
2023/08/02 04:59:07;;;;;;;3.73;1.53;;;16.50;85.80;;;;;;5055237;28;20434;-67
2023/08/02 05:01:36;;;;;;;2.90;1.73;;;16.40;85.60;;;;;;5055068;28;20519;-67
2023/08/02 05:04:03;;;;;;;6.23;1.60;;;16.50;85.70;;;;;;5055042;28;20476;-68
2023/08/02 05:06:38;;;;;;;2.40;1.80;;;16.50;86.00;;;;;;5054518;28;20543;-69
2023/08/02 05:09:11;;;;;;;3.20;1.80;;;16.40;84.90;;;;;;5054698;28;20459;-68
2023/08/02 05:11:40;;;;;;;8.77;2.40;;;16.10;86.20;;;;;;5054652;28;20940;-67
2023/08/02 05:14:19;;;;;;;4.93;2.23;;;16.00;86.40;;;;;;5054543;28;20478;-74
2023/08/02 05:16:47;;;;;;;3.60;2.17;;;16.10;87.20;;;;;;5055067;28;20420;-68
2023/08/02 05:19:16;;;;;;;4.03;2.10;;;16.00;86.90;;;;;;5054460;28;20502;-68
2023/08/02 05:21:46;;;;;;;4.20;2.07;;;16.00;87.00;;;;;;5053427;28;20484;-68
2023/08/02 05:24:13;;;;;;;6.67;3.10;;;16.00;87.40;;;;;;5057458;28;20483;-68
2023/08/02 05:26:45;;;;;;;7.80;2.93;;;16.00;87.20;;;;;;5053159;28;20463;-67
2023/08/02 05:29:13;;;;;;;7.23;3.47;;;16.10;87.10;;;;;;5053812;28;20430;-68
2023/08/02 05:31:42;;;;;;;5.90;3.80;;;16.20;87.20;;;;;;5054014;28;20459;-68
2023/08/02 05:34:09;;;;;;;5.60;2.23;;;16.20;87.30;;;;;;5054155;28;20486;-68
2023/08/02 05:36:36;;;;;;;5.27;3.00;;;16.30;86.80;;;;;;5053870;28;20483;-68
2023/08/02 05:39:03;;;;;;;3.67;2.17;;;16.30;86.80;;;;;;5054170;28;20460;-67
2023/08/02 05:41:30;;;;;;;4.80;2.00;;;16.10;87.10;;;;;;5054463;28;20428;-68
2023/08/02 05:44:01;;;;;;;3.50;1.83;;;16.20;87.30;;;;;;5054290;28;20464;-67
2023/08/02 05:46:31;;;;;;;2.73;1.37;;;16.20;87.60;;;;;;5050449;28;21005;-68
2023/08/02 05:48:58;;;;;;;2.60;1.60;;;16.20;86.80;;;;;;5053522;28;20865;-68
2023/08/02 05:51:26;;;;;;;2.80;1.87;;;16.20;86.70;;;;;;5053953;28;20494;-69
2023/08/02 05:53:53;;;;;;;6.50;1.50;;;16.20;87.10;;;;;;5053170;28;20442;-68
2023/08/02 05:56:24;;;;;;;3.13;2.07;;;16.20;87.30;;;;;;5052929;28;20488;-68
2023/08/02 05:58:51;;;;;;;4.17;1.60;;;16.30;87.50;;;;;;5053161;28;20433;-68
2023/08/02 06:01:18;;;;;;;3.60;1.60;;;16.30;87.50;;;;;;5053510;28;20889;-68
2023/08/02 06:03:52;;;;;;;3.17;1.67;;;16.40;87.30;;;;;;5052867;28;20487;-68
2023/08/02 06:06:21;;;;;;;4.63;1.93;;;16.50;87.20;;;;;;5053658;28;20512;-67
2023/08/02 06:08:48;;;;;;;4.73;1.73;;;16.60;87.50;;;;;;5053672;28;20449;-68
2023/08/02 06:11:15;;;;;;;5.27;2.27;;;16.70;87.00;;;;;;5053062;28;20551;-67
2023/08/02 06:13:42;;;;;;;2.90;1.70;;;16.70;86.70;;;;;;5052105;28;20947;-69
2023/08/02 06:16:09;;;;;;;3.67;2.07;;;16.80;86.80;;;;;;5052237;28;21006;-68
2023/08/02 06:18:41;;;;;;;4.17;1.93;;;16.70;87.20;;;;;;5052886;28;20437;-68
2023/08/02 06:21:10;;;;;;;4.40;2.00;;;16.80;86.90;;;;;;5054337;28;20464;-67
2023/08/02 06:23:37;;;;;;;3.13;1.70;;;16.70;87.30;;;;;;5053189;28;20482;-68
2023/08/02 06:26:04;;;;;;;5.13;1.57;;;16.80;88.20;;;;;;5054041;28;20496;-68
2023/08/02 06:28:31;;;;;;;4.37;1.50;;;16.80;87.90;;;;;;5054006;28;20425;-68
2023/08/02 06:31:02;;;;;;;4.00;1.63;;;16.80;88.00;;;;;;5053709;28;20440;-68
2023/08/02 06:33:29;;;;;;;3.40;1.50;;;16.80;88.40;;;;;;5053680;28;20460;-68
2023/08/02 06:35:56;;;;;;;4.27;1.40;;;16.80;88.90;;;;;;5053585;28;20479;-67
2023/08/02 06:38:24;;;;;;;4.50;2.10;;;16.90;88.90;;;;;;5053710;28;20429;-68
2023/08/02 06:40:55;;;;;;;3.80;1.93;;;16.90;89.80;;;;;;5053517;28;20999;-68
2023/08/02 06:43:22;;;;;;;4.30;1.80;;;16.90;90.10;;;;;;5053573;28;20463;-68
2023/08/02 06:45:49;;;;;;;6.50;1.50;;;16.90;90.10;;;;;;5053674;28;20531;-68
2023/08/02 06:48:20;;;;;;;3.97;1.63;;;16.80;90.00;;;;;;5053945;28;20516;-68
2023/08/02 06:50:49;;;;;;;4.27;2.17;;;16.80;90.10;;;;;;5053757;28;20827;-68
2023/08/02 06:53:16;;;;;;;2.50;1.57;;;16.70;89.80;;;;;;5053693;28;20460;-67
2023/08/02 06:55:44;;;;;;;2.80;1.47;;;16.60;90.00;;;;;;5053693;28;20435;-68
2023/08/02 06:58:11;;;;;;;4.47;2.30;;;16.60;90.10;;;;;;5053593;28;20476;-68
2023/08/02 07:00:40;;;;;;;3.30;2.03;;;16.50;90.80;;;;;;5053640;28;20467;-68
2023/08/02 07:03:07;;;;;;;4.50;2.00;;;16.50;91.00;;;;;;5053674;28;20472;-68
2023/08/02 07:05:34;;;;;;;3.50;1.60;;;16.60;90.80;;;;;;5053072;28;21032;-68
2023/08/02 07:08:04;;;;;;;2.47;1.50;;;16.60;91.20;;;;;;5053225;28;20470;-68
2023/08/02 07:10:33;;;;;;;3.23;1.80;;;16.60;91.60;;;;;;5053139;28;20496;-69
2023/08/02 07:13:01;;;;;;;3.93;1.63;;;16.60;91.00;;;;;;5053148;28;20440;-68
2023/08/02 07:15:28;;;;;;;7.03;2.00;;;16.80;91.10;;;;;;5053199;28;20931;-68
2023/08/02 07:17:55;;;;;;;3.10;1.90;;;16.80;91.40;;;;;;5053463;28;20488;-67
2023/08/02 07:20:22;;;;;;;4.10;1.80;;;16.90;91.10;;;;;;5053404;28;20464;-68
2023/08/02 07:22:49;;;;;;;2.80;1.83;;;16.90;90.90;;;;;;5053399;28;20849;-68
2023/08/02 07:25:16;;;;;;;4.07;2.40;;;17.00;91.30;;;;;;5053054;28;21058;-67
2023/08/02 07:27:45;;;;;;;3.60;1.90;;;17.00;91.60;;;;;;5053398;28;20472;-68
2023/08/02 07:30:14;;;;;;;3.17;1.60;;;17.00;92.00;;;;;;5053345;28;20469;-68
2023/08/02 07:32:41;;;;;;;2.70;1.60;;;16.90;92.00;;;;;;5053292;28;20484;-68
2023/08/02 07:35:09;;;;;;;5.03;2.53;;;16.90;92.80;;;;;;5053444;28;20444;-68
2023/08/02 07:37:36;;;;;;;3.13;2.07;;;16.90;92.70;;;;;;5053247;28;20468;-67
2023/08/02 07:40:03;;;;;;;2.83;1.40;;;16.90;92.40;;;;;;5053148;28;20520;-69
2023/08/02 07:42:30;;;;;;;2.40;1.50;;;17.00;92.60;;;;;;5053431;28;20472;-68
2023/08/02 07:45:03;;;;;;;4.17;2.13;;;17.00;93.10;;;;;;5053122;28;20523;-69
2023/08/02 07:47:31;;;;;;;3.63;2.00;;;17.00;92.80;;;;;;5053180;28;20444;-67
2023/08/02 07:49:58;;;;;;;4.17;1.83;;;17.00;92.80;;;;;;5055766;28;20522;-68
2023/08/02 07:52:25;;;;;;;3.13;1.63;;;17.00;92.70;;;;;;5056656;28;20521;-68
2023/08/02 07:54:53;;;;;;;4.13;1.83;;;17.00;92.40;;;;;;5056989;28;20464;-68
2023/08/02 07:57:20;;;;;;;4.17;2.40;;;17.00;92.60;;;;;;5056595;28;20441;-67
2023/08/02 07:59:47;;;;;;;2.70;1.60;;;17.00;92.80;;;;;;5056906;28;20483;-69
2023/08/02 08:02:15;;;;;;;3.50;1.90;;;17.00;93.40;;;;;;5056555;28;20461;-68
2023/08/02 08:04:43;;;;;;;3.63;2.23;;;17.00;93.00;;;;;;5056697;28;20528;-68
2023/08/02 08:07:10;;;;;;;4.50;2.20;;;17.20;93.10;;;;;;5056649;28;20525;-67
2023/08/02 08:09:46;;;;;;;4.73;2.03;;;17.30;93.40;;;;;;5056264;28;20564;-68
2023/08/02 08:12:13;;;;;;;3.30;1.70;;;17.40;93.50;;;;;;5056711;28;20604;-68
2023/08/02 08:14:43;;;;;;;3.00;1.80;;;17.50;93.50;;;;;;5056564;28;20517;-68
2023/08/02 08:17:11;;;;;;;3.03;1.77;;;17.60;93.60;;;;;;5056766;28;20429;-68
2023/08/02 08:19:38;;;;;;;3.50;2.13;;;17.70;93.70;;;;;;5056141;28;20891;-68
2023/08/02 08:22:06;;;;;;;3.03;1.20;;;17.80;93.80;;;;;;5056114;28;20530;-68
2023/08/02 08:24:35;;;;;;;2.77;1.60;;;17.90;93.80;;;;;;5056263;28;20470;-68
2023/08/02 08:27:07;;;;;;;4.43;1.80;;;17.90;93.50;;;;;;5056012;28;21046;-68
2023/08/02 08:29:39;;;;;;;2.80;1.40;;;17.80;93.30;;;;;;5056353;28;20450;-68
2023/08/02 08:32:06;;;;;;;2.50;1.60;;;17.90;93.60;;;;;;5056386;28;20779;-68
2023/08/02 08:34:38;;;;;;;2.97;1.70;;;18.00;93.90;;;;;;5056215;28;20485;-68
2023/08/02 08:37:07;;;;;;;2.73;1.57;;;18.10;93.00;;;;;;5056180;28;20430;-67
2023/08/02 08:39:37;;;;;;;4.90;1.93;;;18.20;93.30;;;;;;5056148;28;20857;-68
2023/08/02 08:42:07;;;;;;;5.33;2.43;;;18.10;93.40;;;;;;5055705;28;20976;-68
2023/08/02 08:44:37;;;;;;;2.70;1.50;;;18.10;93.30;;;;;;5055762;28;20918;-68
2023/08/02 08:47:08;;;;;;;3.87;1.70;;;18.10;94.00;;;;;;5055747;28;20822;-68
2023/08/02 08:49:45;;;;;;;5.77;2.20;;;18.20;93.90;;;;;;5055668;28;20426;-67
2023/08/02 08:52:15;;;;;;;3.30;2.10;;;18.30;93.90;;;;;;5055611;28;20468;-68
2023/08/02 08:54:45;;;;;;;2.63;1.60;;;18.30;93.70;;;;;;5055900;28;20425;-68
2023/08/02 08:57:14;;;;;;;6.03;2.10;;;18.30;93.60;;;;;;5055506;28;20432;-68
2023/08/02 08:59:41;;;;;;;3.33;1.83;;;18.30;94.10;;;;;;5055686;28;20439;-68
2023/08/02 09:02:12;;;;;;;3.43;1.60;;;18.30;94.30;;;;;;5055771;28;20514;-67
2023/08/02 09:04:41;;;;;;;3.40;2.10;;;18.40;94.50;;;;;;5055904;28;20462;-68
2023/08/02 09:07:08;;;;;;;4.50;2.13;;;18.20;94.60;;;;;;5055568;28;20578;-68
2023/08/02 09:09:39;;;;;;;3.93;1.60;;;18.30;94.50;;;;;;5055095;28;20545;-68
2023/08/02 09:12:08;;;;;;;4.70;2.20;;;18.20;94.10;;;;;;5055359;28;20473;-68
2023/08/02 09:14:39;;;;;;;2.70;1.50;;;18.30;94.30;;;;;;5055249;28;20477;-67
2023/08/02 09:17:08;;;;;;;3.13;2.00;;;18.40;94.50;;;;;;5055198;28;20432;-68
2023/08/02 09:19:40;;;;;;;4.17;1.40;;;18.40;94.90;;;;;;5055292;28;20533;-67
2023/08/02 09:22:12;;;;;;;3.00;1.63;;;18.40;95.10;;;;;;5055389;28;20473;-68
2023/08/02 09:24:41;;;;;;;4.50;1.90;;;18.50;94.80;;;;;;5055292;28;20519;-68
2023/08/02 09:27:13;;;;;;;4.03;2.07;;;18.60;94.90;;;;;;5055203;28;20872;-67
2023/08/02 09:29:48;;;;;;;3.80;2.07;;;18.60;95.10;;;;;;5055030;28;20425;-67
2023/08/02 09:32:20;;;;;;;3.80;2.20;;;18.70;95.00;;;;;;5055198;28;20507;-67
2023/08/02 09:34:49;;;;;;;3.50;1.53;;;18.70;95.00;;;;;;5054810;28;20465;-68
2023/08/02 09:37:27;;;;;;;6.53;3.60;;;18.80;95.60;;;;;;5054708;28;20489;-68
2023/08/02 09:39:56;;;;;;;4.07;2.43;;;18.80;96.00;;;;;;5055119;28;20868;-68
2023/08/02 09:42:25;;;;;;;5.23;2.00;;;18.90;96.50;;;;;;5054582;28;20863;-68
2023/08/02 09:44:54;;;;;;;6.23;2.53;;;19.00;96.40;;;;;;5055182;28;20438;-67
2023/08/02 09:47:21;;;;;;;3.20;2.00;;;19.00;96.00;;;;;;5054458;28;21063;-68
2023/08/02 09:50:07;;;;;;;2.80;1.73;;;19.10;95.90;;;;;;5054681;28;20556;-68
2023/08/02 09:52:35;;;;;;;3.83;2.20;;;19.20;96.20;;;;;;5054504;28;20423;-68
2023/08/02 09:55:03;;;;;;;4.70;2.40;;;19.20;95.90;;;;;;5054628;28;20791;-68
2023/08/02 09:57:32;;;;;;;5.37;2.83;;;19.10;95.20;;;;;;5054301;28;20478;-69
2023/08/02 10:00:04;;;;;;;3.07;1.90;;;19.20;95.30;;;;;;5054703;28;20437;-68
2023/08/02 10:02:35;;;;;;;2.70;1.60;;;19.20;95.10;;;;;;5054273;28;20427;-68
2023/08/02 10:05:06;;;;;;;4.53;3.30;;;19.30;95.10;;;;;;5054568;28;20458;-68
2023/08/02 10:07:36;;;;;;;4.40;1.90;;;19.30;95.40;;;;;;5054420;28;20458;-68
2023/08/02 10:10:07;;;;;;;3.43;2.27;;;19.30;94.90;;;;;;5053752;28;20987;-68
2023/08/02 10:12:36;;;;;;;3.83;1.90;;;19.30;94.10;;;;;;5053730;28;20458;-67
2023/08/02 10:15:04;;;;;;;4.73;2.10;;;19.40;94.40;;;;;;5053924;28;20923;-68
2023/08/02 10:17:37;;;;;;;4.10;1.87;;;19.20;94.00;;;;;;5054164;28;20547;-68
2023/08/02 10:20:06;;;;;;;2.73;1.47;;;19.30;94.70;;;;;;5053867;28;20514;-68
2023/08/02 10:22:36;;;;;;;2.87;1.50;;;19.40;95.20;;;;;;5053846;28;20431;-68
2023/08/02 10:25:06;;;;;;;4.70;1.77;;;19.50;94.70;;;;;;5053872;28;20430;-67
2023/08/02 10:27:39;;;;;;;3.50;2.00;;;19.60;94.50;;;;;;5054005;28;20901;-68
2023/08/02 10:30:08;;;;;;;3.70;1.63;;;19.80;93.90;;;;;;5054302;28;20456;-67
2023/08/02 10:32:40;;;;;;;2.40;1.30;;;20.00;94.40;;;;;;5053914;28;20513;-68
2023/08/02 10:35:09;;;;;;;3.33;2.10;;;20.20;92.00;;;;;;5054023;28;20886;-68
2023/08/02 10:37:53;;;;;;;2.70;1.40;;;20.30;91.30;;;;;;5053624;28;20485;-68
2023/08/02 10:40:24;;;;;;;3.23;2.37;;;20.40;90.50;;;;;;5053609;28;20439;-68
2023/08/02 10:43:07;;;;;;;3.67;1.97;;;20.50;90.60;;;;;;5053942;28;20431;-68
2023/08/02 10:45:34;;;;;;;3.10;1.80;;;20.50;90.00;;;;;;5051617;28;20489;-68
2023/08/02 10:48:24;;;;;;;3.70;1.87;;;20.50;90.40;;;;;;5053396;28;20515;-68
2023/08/02 10:50:51;;;;;;;4.27;2.03;;;20.70;91.40;;;;;;5053306;28;20496;-68
2023/08/02 10:53:23;;;;;;;4.33;1.50;;;20.80;88.40;;;;;;5053758;28;20483;-70
2023/08/02 10:56:06;;;;;;;3.50;2.03;;;20.90;89.60;;;;;;5053475;28;20456;-68
2023/08/02 10:58:57;;;;;;;4.10;1.90;;;21.20;87.40;;;;;;5053343;28;20481;-69
2023/08/02 11:01:24;;;;;;;3.20;1.80;;;21.20;87.10;;;;;;5038513;28;20926;-68
2023/08/02 11:03:53;;;;;;;3.23;1.90;;;21.30;86.50;;;;;;5053683;28;20553;-68
2023/08/02 11:06:28;;;;;;;4.90;1.70;;;21.50;86.90;;;;;;5053399;28;20474;-68
2023/08/02 11:09:00;;;;;;;3.47;1.60;;;21.60;87.20;;;;;;5053276;28;20423;-68
2023/08/02 11:11:33;;;;;;;3.63;1.90;;;21.90;85.30;;;;;;5053668;28;20872;-68
2023/08/02 11:14:02;;;;;;;4.10;1.70;;;22.00;81.80;;;;;;5053239;28;20431;-68
2023/08/02 11:16:39;;;;;;;3.80;2.00;;;22.10;82.80;;;;;;5053485;28;20539;-68
2023/08/02 11:19:11;;;;;;;3.20;1.97;;;22.30;82.50;;;;;;5053517;28;20462;-68
2023/08/02 11:21:52;;;;;;;5.60;1.50;;;22.50;82.40;;;;;;5053183;28;20962;-67
2023/08/02 11:24:21;;;;;;;3.30;1.93;;;22.60;81.20;;;;;;5056501;28;20543;-70
2023/08/02 11:26:55;;;;;;;4.80;2.00;;;22.80;83.20;;;;;;5057522;28;20516;-68
2023/08/02 11:29:22;;;;;;;4.90;2.00;;;22.90;83.50;;;;;;5057231;28;20432;-68
2023/08/02 11:31:51;;;;;;;3.03;1.50;;;22.90;82.20;;;;;;5057410;28;20551;-73
2023/08/02 11:34:19;;;;;;;3.80;2.20;;;23.00;82.90;;;;;;5057569;28;20474;-68
2023/08/02 11:36:46;;;;;;;4.20;2.40;;;23.10;82.20;;;;;;5057298;28;20515;-68
2023/08/02 11:39:17;;;;;;;3.47;2.00;;;23.20;82.60;;;;;;5057294;28;20484;-68
2023/08/02 11:41:47;;;;;;;3.70;1.67;;;23.30;84.00;;;;;;5057462;28;20480;-68
2023/08/02 11:44:17;;;;;;;3.30;1.80;;;23.50;84.90;;;;;;5057294;28;20516;-68
2023/08/02 11:46:45;;;;;;;3.60;1.80;;;23.60;85.00;;;;;;5057028;28;20567;-68
2023/08/02 11:49:12;;;;;;;2.73;1.57;;;23.80;83.70;;;;;;5056758;28;20430;-68
2023/08/02 11:51:42;;;;;;;3.70;2.00;;;23.90;83.00;;;;;;5056962;28;20425;-68
2023/08/02 11:54:11;;;;;;;3.90;1.83;;;24.10;84.10;;;;;;5057196;28;20437;-68
2023/08/02 11:56:39;;;;;;;3.03;2.00;;;24.20;80.20;;;;;;5056700;28;20970;-68
2023/08/02 11:59:12;;;;;;;3.40;1.80;;;24.30;81.10;;;;;;5056972;28;20437;-68
2023/08/02 12:01:43;;;;;;;3.10;2.03;;;24.30;81.30;;;;;;5056867;28;20500;-68
2023/08/02 12:04:15;;;;;;;3.40;2.10;;;24.40;78.50;;;;;;5056951;28;20848;-68
2023/08/02 12:06:47;;;;;;;3.43;2.40;;;24.50;79.50;;;;;;5056362;28;21038;-68
2023/08/02 12:09:14;;;;;;;3.20;1.60;;;24.50;78.80;;;;;;5056603;28;20847;-68
2023/08/02 12:11:42;;;;;;;2.80;1.70;;;24.50;79.80;;;;;;5056660;28;20441;-68
2023/08/02 12:14:09;;;;;;;5.40;2.00;;;24.60;81.30;;;;;;5056668;28;20461;-68
2023/08/02 12:16:40;;;;;;;3.60;1.80;;;24.70;80.20;;;;;;5056286;28;20425;-68
2023/08/02 12:19:11;;;;;;;3.10;1.80;;;24.80;79.60;;;;;;5056243;28;20472;-68
2023/08/02 12:21:38;;;;;;;2.90;1.73;;;24.90;78.10;;;;;;5056189;28;20488;-68
2023/08/02 12:24:16;;;;;;;3.43;1.80;;;25.00;77.90;;;;;;5056151;28;20479;-69
2023/08/02 12:26:44;;;;;;;4.33;1.90;;;25.20;79.60;;;;;;5056496;28;20433;-68
2023/08/02 12:29:30;;;;;;;3.73;1.77;;;25.30;77.60;;;;;;5056007;28;20448;-68
2023/08/02 12:31:59;;;;;;;3.73;2.00;;;25.40;77.80;;;;;;5056458;28;20422;-68
2023/08/02 12:34:28;;;;;;;2.70;1.37;;;25.70;75.50;;;;;;5055305;28;20445;-67
2023/08/02 12:36:56;;;;;;;2.93;1.50;;;25.80;75.40;;;;;;5056130;28;20532;-68
2023/08/02 12:39:23;;;;;;;3.10;1.43;;;26.10;78.30;;;;;;5055854;28;20939;-68
2023/08/02 12:41:50;;;;;;;2.90;1.70;;;26.30;74.30;;;;;;5055859;28;20950;-68
2023/08/02 12:44:17;;;;;;;3.37;2.10;;;26.50;72.30;;;;;;5055771;28;20429;-69
2023/08/02 12:46:44;;;;;;;3.60;1.57;;;26.60;71.40;;;;;;5055662;28;20476;-69
2023/08/02 12:49:16;;;;;;;3.70;1.43;;;26.80;70.70;;;;;;5056038;28;20433;-68
2023/08/02 12:51:50;;;;;;;3.40;1.40;;;26.80;70.90;;;;;;5055960;28;20413;-68
2023/08/02 12:54:17;;;;;;;3.37;2.00;;;27.00;69.80;;;;;;5055590;28;20504;-68
2023/08/02 12:56:44;;;;;;;4.43;1.77;;;27.00;65.00;;;;;;5055781;28;20483;-68
2023/08/02 12:59:13;;;;;;;2.97;1.93;;;27.00;65.60;;;;;;5055483;28;20480;-69